Agios Nikolaos — SY4620 — position and weather

sailwx.info

Track history (hours):
 
Tides and Currents Weather Stations Pressure Air Temp Water Temp Dewpoint Dewpoint Depression Visibility Wind Speed Wind Dir Waves Ship Positions

Agios Nikolaos

Last reported at 2017-Nov-11 02:22 UTC. Time now 2017-Dec-15 20:00 UTC.
Position N 40°01' E 024°08'.
Warning: this ship's position is 34 days out of date.

Length 29 m; draft 2.5 m.

Type: Fishing. MMSI: 240164000.

Date/timePositionNaut miles runAvg speedWind from/ knotsBaromVisibWave heightAir tempDewpointWater temp
2017-Nov-11 02:22N 40°01' E 024°08'4 9.4
2017-Nov-11 01:59N 40°03' E 024°12'11 9.0
2017-Nov-11 00:42N 40°09' E 024°25'210.1
2017-Nov-11 00:30N 40°11' E 024°24'510.2
2017-Nov-11 00:00N 40°15' E 024°20'5 9.8
2017-Nov-10 23:31N 40°19' E 024°16'  
2017-Nov-07 16:33N 40°38' E 023°59'0 0.9
2017-Nov-07 16:29N 40°37' E 023°59'6 5.6
2017-Nov-07 15:25N 40°42' E 024°05'2 5.2
2017-Nov-07 15:00N 40°43' E 024°07'4 7.5
2017-Nov-07 14:31N 40°44' E 024°12'5 9.0
2017-Nov-07 14:00N 40°46' E 024°17'  
2017-Nov-03 08:07N 40°51' E 024°19'0 0.0
2017-Nov-03 07:59N 40°51' E 024°19'0 0.0
2017-Nov-03 07:23N 40°51' E 024°19'0 0.0
2017-Nov-03 06:59N 40°51' E 024°19'0 0.0
2017-Nov-03 06:30N 40°51' E 024°19'0 0.0
2017-Nov-03 05:59N 40°51' E 024°19'0 0.0
2017-Nov-03 05:28N 40°51' E 024°19'0 0.0
2017-Nov-02 21:39N 40°51' E 024°19'0 0.0
2017-Nov-02 21:30N 40°51' E 024°19'0 0.0
2017-Nov-02 20:58N 40°51' E 024°19'0 0.0
2017-Nov-02 20:27N 40°51' E 024°19'0 0.0
2017-Nov-02 19:59N 40°51' E 024°19'0 0.0
2017-Nov-02 19:29N 40°51' E 024°19'0 0.0
2017-Nov-02 18:55N 40°51' E 024°19'0 0.0
2017-Nov-02 18:27N 40°51' E 024°19'1 2.1
2017-Nov-02 18:00N 40°50' E 024°20'4 8.7
2017-Nov-02 17:30N 40°46' E 024°19'5 9.4
2017-Nov-02 16:59N 40°42' E 024°16'1 2.2
2017-Nov-02 16:30N 40°41' E 024°15'5 9.2
2017-Nov-02 16:00N 40°45' E 024°18'5 9.4
2017-Nov-02 15:30N 40°49' E 024°20'2 0.4
2017-Nov-02 10:39N 40°51' E 024°19'0 0.0
2017-Nov-02 10:30N 40°51' E 024°19'0 0.0
2017-Nov-02 09:59N 40°51' E 024°19'0 0.0
2017-Nov-02 09:30N 40°51' E 024°19'0 0.0
2017-Nov-02 09:00N 40°51' E 024°19'0 0.0
2017-Nov-02 08:30N 40°51' E 024°19'0 0.0
2017-Nov-02 08:01N 40°51' E 024°19'0 0.0
2017-Nov-02 07:30N 40°51' E 024°19'  
Track history (hours):
 
Tides and Currents Weather Stations Pressure Air Temp Water Temp Dewpoint Dewpoint Depression Visibility Wind Speed Wind Dir Waves Ship Positions

Agios Nikolaos

Last reported at 2017-Nov-11 02:22 UTC. Time now 2017-Dec-15 20:00 UTC.
Position N 40°01' E 024°08'.
Warning: this ship's position is 34 days out of date.

Length 29 m; draft 2.5 m.

Type: Fishing. MMSI: 240164000.

Date/timePositionNaut miles runAvg speedWind from/ knotsBaromVisibWave heightAir tempDewpointWater temp
2017-Nov-11 02:22N 40°01' E 024°08'4 9.4
2017-Nov-11 01:59N 40°03' E 024°12'11 9.0
2017-Nov-11 00:42N 40°09' E 024°25'210.1
2017-Nov-11 00:30N 40°11' E 024°24'510.2
2017-Nov-11 00:00N 40°15' E 024°20'5 9.8
2017-Nov-10 23:31N 40°19' E 024°16'  
2017-Nov-07 16:33N 40°38' E 023°59'0 0.9
2017-Nov-07 16:29N 40°37' E 023°59'6 5.6
2017-Nov-07 15:25N 40°42' E 024°05'2 5.2
2017-Nov-07 15:00N 40°43' E 024°07'4 7.5
2017-Nov-07 14:31N 40°44' E 024°12'5 9.0
2017-Nov-07 14:00N 40°46' E 024°17'  
2017-Nov-03 08:07N 40°51' E 024°19'0 0.0
2017-Nov-03 07:59N 40°51' E 024°19'0 0.0
2017-Nov-03 07:23N 40°51' E 024°19'0 0.0
2017-Nov-03 06:59N 40°51' E 024°19'0 0.0
2017-Nov-03 06:30N 40°51' E 024°19'0 0.0
2017-Nov-03 05:59N 40°51' E 024°19'0 0.0
2017-Nov-03 05:28N 40°51' E 024°19'0 0.0
2017-Nov-02 21:39N 40°51' E 024°19'0 0.0
2017-Nov-02 21:30N 40°51' E 024°19'0 0.0
2017-Nov-02 20:58N 40°51' E 024°19'0 0.0
2017-Nov-02 20:27N 40°51' E 024°19'0 0.0
2017-Nov-02 19:59N 40°51' E 024°19'0 0.0
2017-Nov-02 19:29N 40°51' E 024°19'0 0.0
2017-Nov-02 18:55N 40°51' E 024°19'0 0.0
2017-Nov-02 18:27N 40°51' E 024°19'1 2.1
2017-Nov-02 18:00N 40°50' E 024°20'4 8.7
2017-Nov-02 17:30N 40°46' E 024°19'5 9.4
2017-Nov-02 16:59N 40°42' E 024°16'1 2.2
2017-Nov-02 16:30N 40°41' E 024°15'5 9.2
2017-Nov-02 16:00N 40°45' E 024°18'5 9.4
2017-Nov-02 15:30N 40°49' E 024°20'2 0.4
2017-Nov-02 10:39N 40°51' E 024°19'0 0.0
2017-Nov-02 10:30N 40°51' E 024°19'0 0.0
2017-Nov-02 09:59N 40°51' E 024°19'0 0.0
2017-Nov-02 09:30N 40°51' E 024°19'0 0.0
2017-Nov-02 09:00N 40°51' E 024°19'0 0.0
2017-Nov-02 08:30N 40°51' E 024°19'0 0.0
2017-Nov-02 08:01N 40°51' E 024°19'0 0.0
2017-Nov-02 07:30N 40°51' E 024°19'  

Dump ship's entire track history